Fort Worth - NOAA's Hourly Summary for Tuesday, May 8, 2018
Hour Temp
(f)
RH
(%)
Solar Rad.
(MJ/m2)
Rainfall
(in)
Wind
(mph)
5/8/2018 12:00 AM 75 56 0 0 3.45
5/8/2018 1:00 AM 74 56 0 0 4.19
5/8/2018 2:00 AM 73 55 0 0 4.71
5/8/2018 3:00 AM 73 54 0 0 4.04
5/8/2018 4:00 AM 71 56 0 0 3.55
5/8/2018 5:00 AM 71 57 0 0 2.4
5/8/2018 6:00 AM 68 64 0.01 0 2.03
5/8/2018 7:00 AM 69 64 0.29 0 2.46
5/8/2018 8:00 AM 73 59 0.97 0 2.61
5/8/2018 9:00 AM 78 48 1.79 0 6.91
5/8/2018 10:00 AM 80 46 2.17 0 7.28
5/8/2018 11:00 AM 83 42 2.77 0 7.4
5/8/2018 12:00 PM 86 38 3.13 0 8.96
5/8/2018 1:00 PM 86 38 2.52 0 9.54
5/8/2018 2:00 PM 87 37 2.89 0 8.4
5/8/2018 3:00 PM 88 33 2.07 0 8.08
5/8/2018 4:00 PM 89 31 2.57 0 8.81
5/8/2018 5:00 PM 88 33 1.85 0 9.26
5/8/2018 6:00 PM 87 33 1.13 0 10.97
5/8/2018 7:00 PM 85 35 0.15 0 8.46
5/8/2018 8:00 PM 82 38 0.02 0 6.19
5/8/2018 9:00 PM 79 44 0 0 5.86
5/8/2018 10:00 PM 77 48 0 0 6.44
5/8/2018 11:00 PM 76 52 0 0 5.18
Data Summary 79 46 24.33 0.00 6.13